createdAt,value
2022-10-16T00:01:47.186Z,100396.19
2022-10-16T00:04:15.953Z,100400.13
2022-10-16T00:06:44.522Z,100399.56
2022-10-16T00:09:14.174Z,100397.06
2022-10-16T00:11:43.189Z,100401.63
2022-10-16T00:14:15.224Z,100405.47
2022-10-16T00:16:44.544Z,100396.03
2022-10-16T00:19:13.691Z,100409.41
2022-10-16T00:21:42.258Z,100414.66
2022-10-16T00:24:13.203Z,100408.59
2022-10-16T00:26:42.545Z,100418.50
2022-10-16T00:29:11.694Z,100412.47
2022-10-16T00:31:40.442Z,100420.50
2022-10-16T00:34:09.010Z,100418.78
2022-10-16T00:36:37.686Z,100421.53
2022-10-16T00:39:06.343Z,100425.94
2022-10-16T00:41:36.345Z,100417.03
2022-10-16T00:44:45.850Z,100427.81
2022-10-16T00:47:20.738Z,100421.50
2022-10-16T00:49:51.525Z,100429.22
2022-10-16T00:52:21.264Z,100418.63
2022-10-16T00:54:52.318Z,100422.53
2022-10-16T00:57:23.172Z,100423.81
2022-10-16T00:59:51.757Z,100412.06
2022-10-16T01:02:20.308Z,100420.13
2022-10-16T01:04:53.360Z,100419.44
2022-10-16T01:07:47.945Z,100417.09
2022-10-16T01:10:29.093Z,100418.06
2022-10-16T01:13:07.502Z,100397.47
2022-10-16T01:15:42.210Z,100415.00
2022-10-16T01:18:20.631Z,100428.03
2022-10-16T01:20:56.816Z,100417.75
2022-10-16T01:23:45.643Z,100359.97
2022-10-16T01:26:26.090Z,100442.75
2022-10-16T01:29:02.320Z,100421.22
2022-10-16T01:31:36.912Z,100432.31
2022-10-16T01:34:10.665Z,100409.81
2022-10-16T01:36:46.387Z,100446.66
2022-10-16T01:39:17.755Z,100412.00
2022-10-16T01:41:50.989Z,100451.03
2022-10-16T01:44:27.214Z,100415.31
2022-10-16T01:46:58.043Z,100458.00
2022-10-16T01:49:31.866Z,100458.84
2022-10-16T01:52:07.384Z,100462.41
2022-10-16T01:54:41.180Z,100438.16
2022-10-16T01:57:11.078Z,100459.75
2022-10-16T01:59:45.567Z,100459.78
2022-10-16T02:02:15.239Z,100469.59
2022-10-16T02:04:48.530Z,100440.16
2022-10-16T02:07:17.660Z,100467.72
2022-10-16T02:09:46.793Z,100471.16
2022-10-16T02:12:24.902Z,100472.91
2022-10-16T02:14:55.214Z,100477.19
2022-10-16T02:17:24.153Z,100482.94
2022-10-16T02:19:56.402Z,100485.97
2022-10-16T02:22:30.075Z,100481.34
2022-10-16T02:25:04.715Z,100470.84
2022-10-16T02:27:40.749Z,100479.47
2022-10-16T02:30:21.377Z,100479.31
2022-10-16T02:32:52.253Z,100483.28
2022-10-16T02:35:24.619Z,100470.59
2022-10-16T02:37:54.353Z,100478.78
2022-10-16T02:40:25.331Z,100484.59
2022-10-16T02:42:55.916Z,100483.25
2022-10-16T02:45:26.655Z,100493.59
2022-10-16T02:47:55.119Z,100495.00
2022-10-16T02:50:25.364Z,100502.69
2022-10-16T02:52:54.077Z,100487.34
2022-10-16T02:55:22.658Z,100487.22
2022-10-16T02:57:51.319Z,100483.44
2022-10-16T03:00:20.134Z,100479.81
2022-10-16T03:02:50.928Z,100470.09
2022-10-16T03:05:19.468Z,100441.75
2022-10-16T03:07:47.740Z,100482.78
2022-10-16T03:10:16.162Z,100452.50
2022-10-16T03:12:44.681Z,100484.69
2022-10-16T03:15:13.277Z,100482.94
2022-10-16T03:17:41.840Z,100491.69
2022-10-16T03:20:12.337Z,100486.31
2022-10-16T03:22:40.953Z,100489.94
2022-10-16T03:25:10.244Z,100494.75
2022-10-16T03:27:38.864Z,100505.53
2022-10-16T03:30:08.758Z,100497.41
2022-10-16T03:32:37.408Z,100495.56
2022-10-16T03:35:06.520Z,100496.44
2022-10-16T03:37:36.161Z,100504.38
2022-10-16T03:40:06.147Z,100447.75
2022-10-16T03:42:34.453Z,100461.56
2022-10-16T03:45:03.007Z,100505.69
2022-10-16T03:47:33.928Z,100494.00
2022-10-16T03:50:02.611Z,100505.47
2022-10-16T03:52:31.184Z,100519.59
2022-10-16T03:55:01.146Z,100527.44
2022-10-16T03:57:30.262Z,100533.50
2022-10-16T03:59:58.969Z,100474.22
2022-10-16T04:02:27.715Z,100526.13
2022-10-16T04:04:56.045Z,100528.72
2022-10-16T04:07:24.930Z,100534.84
2022-10-16T04:09:54.337Z,100533.03
2022-10-16T04:12:24.892Z,100532.00
2022-10-16T04:14:53.621Z,100531.97
2022-10-16T04:17:22.317Z,100534.47
2022-10-16T04:19:51.075Z,100536.22
2022-10-16T04:22:19.764Z,100535.41
2022-10-16T04:24:48.537Z,100539.13
2022-10-16T04:27:16.929Z,100535.19
2022-10-16T04:29:46.978Z,100554.31
2022-10-16T04:32:15.887Z,100534.63
2022-10-16T04:34:44.233Z,100554.59
2022-10-16T04:37:13.300Z,100552.28
2022-10-16T04:39:42.023Z,100551.97
2022-10-16T04:42:10.686Z,100544.66
2022-10-16T04:44:39.474Z,100550.91
2022-10-16T04:47:09.504Z,100545.81
2022-10-16T04:49:38.165Z,100546.72
2022-10-16T04:52:07.187Z,100543.16
2022-10-16T04:54:35.520Z,100500.22
2022-10-16T04:57:05.817Z,100536.03
2022-10-16T04:59:34.491Z,100542.22
2022-10-16T05:02:03.256Z,100552.69
2022-10-16T05:04:33.795Z,100547.41
2022-10-16T05:07:02.767Z,100552.25
2022-10-16T05:09:31.633Z,100556.22
2022-10-16T05:12:00.380Z,100552.03
2022-10-16T05:14:28.919Z,100555.47
2022-10-16T05:16:57.505Z,100557.91
2022-10-16T05:19:27.755Z,100554.81
2022-10-16T05:21:58.414Z,100565.22
2022-10-16T05:24:27.041Z,100566.91
2022-10-16T05:26:55.741Z,100572.25
2022-10-16T05:29:24.448Z,100570.41
2022-10-16T05:31:54.187Z,100568.38
2022-10-16T05:34:23.419Z,100572.69
2022-10-16T05:36:52.152Z,100573.41
2022-10-16T05:39:22.089Z,100577.78
2022-10-16T05:41:53.314Z,100570.69
2022-10-16T05:44:22.008Z,100579.50
2022-10-16T05:46:50.630Z,100578.69
2022-10-16T05:49:19.044Z,100546.59
2022-10-16T05:51:47.298Z,100579.22
2022-10-16T05:54:16.137Z,100587.69
2022-10-16T05:56:45.990Z,100595.19
2022-10-16T05:59:14.280Z,100589.47
2022-10-16T06:01:42.704Z,100586.44
2022-10-16T06:06:45.480Z,100610.19
2022-10-16T06:09:14.011Z,100611.41
2022-10-16T06:11:42.331Z,100625.94
2022-10-16T06:14:11.923Z,100640.19
2022-10-16T06:16:40.936Z,100634.41
2022-10-16T06:19:10.312Z,100631.19
2022-10-16T06:21:38.998Z,100622.69
2022-10-16T06:24:07.777Z,100626.81
2022-10-16T06:26:36.378Z,100634.03
2022-10-16T06:29:04.761Z,100644.25
2022-10-16T06:31:34.978Z,100551.72
2022-10-16T06:34:05.734Z,100636.50
2022-10-16T06:36:34.073Z,100567.34
2022-10-16T06:39:02.348Z,100584.72
2022-10-16T06:41:31.339Z,100624.94
2022-10-16T06:44:08.610Z,100635.69
2022-10-16T06:46:38.847Z,100644.59
2022-10-16T06:49:07.144Z,100648.09
2022-10-16T06:51:40.506Z,100651.44
2022-10-16T06:54:11.904Z,100648.53
2022-10-16T06:56:40.628Z,100656.19
2022-10-16T06:59:09.331Z,100661.75
2022-10-16T07:01:39.086Z,100612.63
2022-10-16T07:04:07.689Z,100654.75
2022-10-16T07:06:36.634Z,100657.91
2022-10-16T07:09:09.547Z,100595.44
2022-10-16T07:11:40.035Z,100624.91
2022-10-16T07:14:18.640Z,100634.13
2022-10-16T07:16:49.656Z,100681.06
2022-10-16T07:19:19.115Z,100570.28
2022-10-16T07:21:47.809Z,100666.25
2022-10-16T07:24:18.195Z,100676.88
2022-10-16T07:26:48.174Z,100474.28
2022-10-16T07:29:18.870Z,100672.78
2022-10-16T07:31:49.278Z,100683.41
2022-10-16T07:34:22.469Z,100667.16
2022-10-16T07:36:51.629Z,100674.50
2022-10-16T07:39:20.365Z,100682.94
2022-10-16T07:41:49.010Z,100681.69
2022-10-16T07:44:18.598Z,100682.28
2022-10-16T07:46:49.387Z,100693.75
2022-10-16T07:49:18.032Z,100697.25
2022-10-16T07:51:51.934Z,100697.06
2022-10-16T07:54:20.590Z,100704.13
2022-10-16T07:56:49.133Z,100718.38
2022-10-16T07:59:18.083Z,100728.19
2022-10-16T08:01:52.582Z,100736.94
2022-10-16T08:04:21.501Z,100732.97
2022-10-16T08:06:50.856Z,100736.97
2022-10-16T08:09:19.515Z,100731.78
2022-10-16T08:11:48.090Z,100728.16
2022-10-16T08:14:17.967Z,100732.50
2022-10-16T08:16:47.934Z,100735.97
2022-10-16T08:19:16.773Z,100734.13
2022-10-16T08:21:45.032Z,100707.47
2022-10-16T08:24:14.544Z,100740.69
2022-10-16T08:26:43.176Z,100736.47
2022-10-16T08:29:11.866Z,100737.56
2022-10-16T08:31:40.511Z,100743.41
2022-10-16T08:34:10.731Z,100746.94
2022-10-16T08:36:39.399Z,100750.84
2022-10-16T08:39:08.186Z,100746.47
2022-10-16T08:42:22.340Z,100750.84
2022-10-16T08:45:29.753Z,100740.16
2022-10-16T08:48:19.392Z,100741.84
2022-10-16T08:50:53.132Z,100752.97
2022-10-16T08:53:30.457Z,100750.97
2022-10-16T08:55:59.478Z,100752.78
2022-10-16T08:58:32.552Z,100739.38
2022-10-16T09:01:05.809Z,100742.50
2022-10-16T09:04:01.477Z,100747.50
2022-10-16T09:06:47.748Z,100755.00
2022-10-16T09:09:59.108Z,100751.88
2022-10-16T09:12:38.428Z,100751.78
2022-10-16T09:15:25.571Z,100757.53
2022-10-16T09:18:06.048Z,100759.63
2022-10-16T09:20:49.290Z,100762.84
2022-10-16T09:23:26.461Z,100770.00
2022-10-16T09:25:58.181Z,100781.53
2022-10-16T09:28:27.244Z,100791.88
2022-10-16T09:30:55.940Z,100792.69
2022-10-16T09:33:30.810Z,100781.50
2022-10-16T09:36:00.462Z,100771.66
2022-10-16T09:38:33.442Z,100806.72
2022-10-16T09:41:05.151Z,100800.56
2022-10-16T09:43:41.677Z,100794.78
2022-10-16T09:46:24.655Z,100805.75
2022-10-16T09:48:57.229Z,100802.69
2022-10-16T09:51:29.277Z,100818.22
2022-10-16T09:54:02.247Z,100800.97
2022-10-16T09:56:34.372Z,100777.00
2022-10-16T09:59:13.047Z,100834.63
2022-10-16T10:01:45.029Z,100831.22
2022-10-16T10:04:14.094Z,100818.84
2022-10-16T10:06:47.220Z,100827.81
2022-10-16T10:09:24.791Z,100782.00
2022-10-16T10:11:56.846Z,100820.69
2022-10-16T10:14:34.461Z,100839.19
2022-10-16T10:17:20.055Z,100798.84
2022-10-16T10:19:56.164Z,100805.09
2022-10-16T10:22:29.661Z,100819.41
2022-10-16T10:25:32.232Z,100802.13
2022-10-16T10:28:46.424Z,100816.56
2022-10-16T10:31:24.382Z,100816.81
2022-10-16T10:34:04.685Z,100801.25
2022-10-16T10:36:36.473Z,100822.28
2022-10-16T10:39:15.511Z,100832.09
2022-10-16T10:42:20.623Z,100827.03
2022-10-16T10:45:18.412Z,100811.16
2022-10-16T10:48:08.528Z,100849.66
2022-10-16T10:50:47.294Z,100855.06
2022-10-16T10:53:34.076Z,100851.28
2022-10-16T10:56:18.270Z,100816.03
2022-10-16T10:59:23.092Z,100843.38
2022-10-16T11:01:58.553Z,100844.19
2022-10-16T11:05:25.480Z,100844.41
2022-10-16T11:08:00.554Z,100856.25
2022-10-16T11:10:38.347Z,100797.41
2022-10-16T11:13:22.356Z,100841.66
2022-10-16T11:15:59.211Z,100814.84
2022-10-16T11:18:42.396Z,100768.66
2022-10-16T11:21:16.541Z,100862.25
2022-10-16T11:23:53.646Z,100825.59
2022-10-16T11:26:28.631Z,100820.50
2022-10-16T11:29:00.121Z,100849.97
2022-10-16T11:31:39.545Z,100814.75
2022-10-16T11:34:19.878Z,100803.72
2022-10-16T11:36:55.780Z,100864.78
2022-10-16T11:39:28.809Z,100872.16
2022-10-16T11:42:05.500Z,100874.09
2022-10-16T11:44:58.707Z,100869.03
2022-10-16T11:47:58.081Z,100830.75
2022-10-16T11:50:33.875Z,100865.56
2022-10-16T11:53:18.299Z,100877.91
2022-10-16T11:55:48.176Z,100871.88
2022-10-16T11:58:28.843Z,100684.75
2022-10-16T12:01:12.735Z,100863.59
2022-10-16T12:03:51.617Z,100863.34
2022-10-16T12:06:35.206Z,100873.81
2022-10-16T12:09:04.974Z,100858.50
2022-10-16T12:11:40.870Z,100800.28
2022-10-16T12:14:42.901Z,100854.53
2022-10-16T12:17:36.564Z,100852.44
2022-10-16T12:20:26.520Z,100862.28
2022-10-16T12:22:58.659Z,100863.56
2022-10-16T12:25:31.257Z,100874.75
2022-10-16T12:28:07.487Z,100850.81
2022-10-16T12:30:39.005Z,100886.72
2022-10-16T12:33:23.311Z,100866.56
2022-10-16T12:35:54.115Z,100883.31
2022-10-16T12:38:28.465Z,100884.41
2022-10-16T12:41:03.803Z,100854.00
2022-10-16T12:43:44.003Z,100835.41
2022-10-16T12:46:35.248Z,100873.63
2022-10-16T12:49:22.858Z,100891.81
2022-10-16T12:51:52.783Z,100899.72
2022-10-16T12:54:27.217Z,100900.25
2022-10-16T12:57:29.293Z,100902.50
2022-10-16T13:00:09.962Z,100905.44
2022-10-16T13:03:34.751Z,100912.56
2022-10-16T13:06:21.177Z,100914.13
2022-10-16T13:09:16.951Z,100844.81
2022-10-16T13:12:24.515Z,100906.41
2022-10-16T13:15:31.191Z,100908.56
2022-10-16T13:18:13.785Z,100916.19
2022-10-16T13:21:09.648Z,100904.56
2022-10-16T13:23:49.636Z,100876.19
2022-10-16T13:26:37.764Z,100915.22
2022-10-16T13:29:06.822Z,100920.31
2022-10-16T13:31:36.077Z,100928.38
2022-10-16T13:34:05.226Z,100923.00
2022-10-16T13:36:45.408Z,100894.47
2022-10-16T13:39:18.060Z,100918.75
2022-10-16T13:41:48.996Z,100923.81
2022-10-16T13:44:21.438Z,100923.50
2022-10-16T13:47:01.816Z,100928.34
2022-10-16T13:49:30.553Z,100926.63
2022-10-16T13:52:01.751Z,100920.81
2022-10-16T13:54:30.825Z,100928.28
2022-10-16T13:57:26.347Z,100926.75
2022-10-16T13:59:56.209Z,100929.06
2022-10-16T14:02:33.259Z,100906.28
2022-10-16T14:05:03.066Z,100929.06
2022-10-16T14:07:35.007Z,100781.34
2022-10-16T14:10:07.374Z,100935.19
2022-10-16T14:12:37.486Z,100928.38
2022-10-16T14:15:08.164Z,100936.47
2022-10-16T14:17:38.158Z,100904.94
2022-10-16T14:20:16.070Z,100929.44
2022-10-16T14:22:45.158Z,100937.69
2022-10-16T14:25:28.547Z,100934.91
2022-10-16T14:28:05.276Z,100930.13
2022-10-16T14:30:37.229Z,100931.84
2022-10-16T14:33:08.201Z,100935.84
2022-10-16T14:35:39.154Z,100942.38
2022-10-16T14:38:20.598Z,100943.03
2022-10-16T14:40:51.611Z,100949.91
2022-10-16T14:43:28.488Z,100962.66
2022-10-16T14:45:59.259Z,100882.91
2022-10-16T14:48:27.995Z,100957.88
2022-10-16T14:50:57.541Z,100957.44
2022-10-16T14:53:26.249Z,100962.44
2022-10-16T14:55:55.073Z,100963.78
2022-10-16T14:58:27.410Z,100830.41
2022-10-16T15:00:57.717Z,100950.56
2022-10-16T15:03:26.459Z,100974.50
2022-10-16T15:05:55.128Z,100970.94
2022-10-16T15:08:23.760Z,100968.88
2022-10-16T15:10:53.208Z,100977.63
2022-10-16T15:13:21.737Z,100972.84
2022-10-16T15:15:51.725Z,100975.38
2022-10-16T15:18:21.493Z,100978.81
2022-10-16T15:20:51.850Z,100973.59
2022-10-16T15:23:23.632Z,100932.19
2022-10-16T15:25:54.239Z,100982.06
2022-10-16T15:28:25.333Z,100976.59
2022-10-16T15:30:57.949Z,100983.34
2022-10-16T15:33:37.085Z,100982.28
2022-10-16T15:36:08.821Z,100989.63
2022-10-16T15:38:37.957Z,100995.16
2022-10-16T15:41:06.608Z,100997.19
2022-10-16T15:43:34.889Z,100969.50
2022-10-16T15:46:09.529Z,100994.31
2022-10-16T15:48:38.294Z,100995.50
2022-10-16T15:51:09.750Z,100997.72
2022-10-16T15:53:38.566Z,100999.13
2022-10-16T15:56:08.051Z,101006.66
2022-10-16T15:58:36.773Z,101005.25
2022-10-16T16:01:07.188Z,100996.63
2022-10-16T16:03:36.876Z,100998.72
2022-10-16T16:06:09.921Z,101006.22
2022-10-16T16:08:38.900Z,101006.66
2022-10-16T16:11:10.468Z,101009.81
2022-10-16T16:13:39.458Z,101000.38
2022-10-16T16:16:12.026Z,101005.19
2022-10-16T16:18:41.366Z,100957.72
2022-10-16T16:21:10.100Z,101012.81
2022-10-16T16:23:38.796Z,101013.84
2022-10-16T16:26:12.779Z,101013.91
2022-10-16T16:28:46.442Z,101017.34
2022-10-16T16:31:18.650Z,101030.50
2022-10-16T16:33:47.932Z,101030.34
2022-10-16T16:36:16.827Z,101031.06
2022-10-16T16:38:45.571Z,101037.34
2022-10-16T16:41:15.241Z,101037.56
2022-10-16T16:43:43.915Z,101040.41
2022-10-16T16:46:13.369Z,100987.69
2022-10-16T16:48:43.452Z,101051.97
2022-10-16T16:51:16.939Z,101055.31
2022-10-16T16:53:46.616Z,101057.53
2022-10-16T16:56:15.504Z,101079.41
2022-10-16T16:58:47.007Z,101078.00
2022-10-16T17:01:19.926Z,101081.97
2022-10-16T17:03:53.014Z,101086.59
2022-10-16T17:06:23.866Z,101015.94
2022-10-16T17:08:53.512Z,101092.75
2022-10-16T17:11:25.558Z,101051.63
2022-10-16T17:13:57.178Z,101100.41
2022-10-16T17:16:28.893Z,101056.09
2022-10-16T17:19:03.026Z,101070.19
2022-10-16T17:21:32.874Z,101100.72
2022-10-16T17:24:02.229Z,101079.13
2022-10-16T17:26:31.714Z,101087.31
2022-10-16T17:29:02.891Z,101111.34
2022-10-16T17:31:34.514Z,101105.47
2022-10-16T17:34:07.164Z,101112.78
2022-10-16T17:36:38.676Z,101119.91
2022-10-16T17:39:09.865Z,101121.56
2022-10-16T17:41:39.084Z,101060.88
2022-10-16T17:44:09.076Z,101134.94
2022-10-16T17:46:40.335Z,101135.88
2022-10-16T17:49:11.548Z,101137.28
2022-10-16T17:51:40.443Z,101148.75
2022-10-16T17:54:10.710Z,101149.00
2022-10-16T17:56:39.623Z,101157.25
2022-10-16T17:59:07.950Z,101155.63
2022-10-16T18:01:40.664Z,101160.91
2022-10-16T18:04:14.658Z,101168.00
2022-10-16T18:06:45.733Z,101165.28
2022-10-16T18:09:18.857Z,101160.88
2022-10-16T18:11:49.194Z,101166.25
2022-10-16T18:14:19.403Z,101176.06
2022-10-16T18:16:47.859Z,101153.13
2022-10-16T18:19:20.997Z,101180.00
2022-10-16T18:21:50.355Z,101179.09
2022-10-16T18:24:19.645Z,101174.75
2022-10-16T18:26:50.289Z,101175.59
2022-10-16T18:29:18.945Z,101181.75
2022-10-16T18:31:47.202Z,101187.13
2022-10-16T18:34:17.156Z,101184.44
2022-10-16T18:36:46.312Z,101178.81
2022-10-16T18:39:18.520Z,101183.06
2022-10-16T18:41:47.663Z,101190.00
2022-10-16T18:44:16.583Z,101192.72
2022-10-16T18:46:45.341Z,101198.06
2022-10-16T18:49:14.250Z,101200.66
2022-10-16T18:51:45.412Z,101202.28
2022-10-16T18:54:14.380Z,101165.53
2022-10-16T18:56:43.166Z,101213.50
2022-10-16T18:59:12.116Z,101162.59
2022-10-16T19:01:42.610Z,101214.91
2022-10-16T19:04:14.370Z,101189.44
2022-10-16T19:06:47.001Z,101190.09
2022-10-16T19:09:18.869Z,101204.94
2022-10-16T19:11:47.676Z,101209.94
2022-10-16T19:14:17.915Z,101203.84
2022-10-16T19:16:46.348Z,101206.63
2022-10-16T19:19:18.356Z,101216.66
2022-10-16T19:21:51.168Z,101221.03
2022-10-16T19:24:19.926Z,101231.78
2022-10-16T19:26:48.665Z,101237.28
2022-10-16T19:29:17.378Z,101234.59
2022-10-16T19:31:45.955Z,101233.94
2022-10-16T19:34:14.678Z,101201.09
2022-10-16T19:36:42.937Z,101207.50
2022-10-16T19:39:17.317Z,101210.63
2022-10-16T19:41:47.406Z,101210.16
2022-10-16T19:44:18.071Z,101213.31
2022-10-16T19:46:48.162Z,101227.59
2022-10-16T19:49:21.673Z,101153.06
2022-10-16T19:51:51.765Z,101237.28
2022-10-16T19:54:21.907Z,101228.66
2022-10-16T19:56:50.690Z,101232.47
2022-10-16T19:59:20.317Z,101239.81
2022-10-16T20:01:49.352Z,101236.53
2022-10-16T20:04:18.044Z,101227.81
2022-10-16T20:06:47.472Z,101231.50
2022-10-16T20:09:16.256Z,101229.97
2022-10-16T20:11:46.223Z,101244.41
2022-10-16T20:14:14.901Z,101254.31
2022-10-16T20:16:43.578Z,101255.25
2022-10-16T20:19:12.351Z,101248.06
2022-10-16T20:21:41.246Z,101248.91
2022-10-16T20:24:09.933Z,101252.59
2022-10-16T20:26:39.368Z,101248.66
2022-10-16T20:29:09.590Z,101267.16
2022-10-16T20:31:38.372Z,101268.16
2022-10-16T20:34:08.752Z,101274.38
2022-10-16T20:36:39.566Z,101210.53
2022-10-16T20:39:08.984Z,101265.31
2022-10-16T20:41:38.091Z,101250.16
2022-10-16T20:44:08.295Z,101255.56
2022-10-16T20:46:36.726Z,101274.38
2022-10-16T20:49:16.280Z,101290.44
2022-10-16T20:51:53.950Z,101291.28
2022-10-16T20:54:22.752Z,101285.00
2022-10-16T20:56:53.035Z,101281.25
2022-10-16T20:59:23.031Z,101279.31
2022-10-16T21:01:51.809Z,101280.16
2022-10-16T21:04:20.672Z,101290.81
2022-10-16T21:06:49.288Z,101303.34
2022-10-16T21:09:17.556Z,101286.13
2022-10-16T21:11:46.168Z,101306.34
2022-10-16T21:14:14.821Z,101302.09
2022-10-16T21:16:44.971Z,101306.66
2022-10-16T21:19:13.623Z,101303.22
2022-10-16T21:21:42.143Z,101312.16
2022-10-16T21:24:13.512Z,101312.38
2022-10-16T21:26:45.664Z,101314.31
2022-10-16T21:29:14.831Z,101309.84
2022-10-16T21:31:44.972Z,101306.91
2022-10-16T21:34:13.694Z,101320.97
2022-10-16T21:36:43.703Z,101332.41
2022-10-16T21:39:15.132Z,101334.09
2022-10-16T21:41:45.541Z,101337.53
2022-10-16T21:44:14.956Z,101341.00
2022-10-16T21:46:46.127Z,101313.94
2022-10-16T21:49:17.914Z,101349.88
2022-10-16T21:51:49.849Z,101347.28
2022-10-16T21:54:22.117Z,101326.34
2022-10-16T21:56:50.548Z,101252.94
2022-10-16T21:59:19.135Z,101353.63
2022-10-16T22:01:53.480Z,101354.50
2022-10-16T22:04:22.763Z,101349.13
2022-10-16T22:06:51.028Z,101349.13
2022-10-16T22:09:19.724Z,101343.81
2022-10-16T22:11:48.349Z,101342.00
2022-10-16T22:14:21.291Z,101338.41
2022-10-16T22:16:51.653Z,101336.63
2022-10-16T22:19:23.208Z,101308.75
2022-10-16T22:21:57.178Z,101340.13
2022-10-16T22:24:26.032Z,101278.78
2022-10-16T22:26:54.657Z,101337.41
2022-10-16T22:29:23.654Z,101351.59
2022-10-16T22:31:54.458Z,101360.50
2022-10-16T22:34:23.066Z,101357.00
2022-10-16T22:36:51.811Z,101353.53
2022-10-16T22:39:20.111Z,101371.47
2022-10-16T22:41:48.660Z,101366.47
2022-10-16T22:44:17.288Z,101357.81
2022-10-16T22:46:45.897Z,101343.81
2022-10-16T22:49:17.425Z,101350.19
2022-10-16T22:51:46.215Z,101347.59
2022-10-16T22:54:15.320Z,101340.47
2022-10-16T22:56:44.181Z,101336.03
2022-10-16T22:59:13.013Z,101341.31
2022-10-16T23:01:43.067Z,101349.19
2022-10-16T23:04:11.700Z,101362.47
2022-10-16T23:06:41.695Z,101373.13
2022-10-16T23:09:11.337Z,101378.47
2022-10-16T23:11:39.675Z,101375.03
2022-10-16T23:14:08.262Z,101364.47
2022-10-16T23:16:36.855Z,101364.63
2022-10-16T23:19:05.486Z,101367.34
2022-10-16T23:21:34.178Z,101376.19
2022-10-16T23:24:04.143Z,101375.31
2022-10-16T23:26:32.797Z,101370.00
2022-10-16T23:29:01.494Z,101379.75
2022-10-16T23:31:30.877Z,101345.50
2022-10-16T23:34:00.631Z,101383.28
2022-10-16T23:36:29.487Z,101381.34
2022-10-16T23:38:58.165Z,101375.03
2022-10-16T23:41:28.252Z,101373.13
2022-10-16T23:43:56.852Z,101377.44
2022-10-16T23:48:54.337Z,101374.69
2022-10-16T23:51:23.596Z,101372.91
2022-10-16T23:53:53.092Z,101378.25
2022-10-16T23:56:21.945Z,101381.75
2022-10-16T23:58:51.902Z,101388.84
